Toledo Express Airport
KTOL : now visible

Airfield :











YOU CAN JOIN US ON...

 
LOGIN :

Register | Disclaimer

   EN    FR    IT 

 









Legend :    VFR   Marginal VFR   IFR   Intensive IFR   Very Intensive IFR
Visi :
Ceiling :
>= 8 km
>= 3000ft
5 to 8 km
1000 to 3000 ft
1500m to 5 km
500 to 1000 ft
800 to 1500m
200 to 500 ft
< 800m
< 200 ft
Symbols :   Thunderstorms  Fog  Heavy snow  Heavy precipitations  Wind > 20 kt






- Airport Elevation : 683 ft
- IATA code : TOL


KTOL - Toledo Express

CURRENT METAR :
  • 301052Z 35007KT 4SM -SN BR OVC005 M02/M04 A3021 RMK AO2 SLP237 P0001 T10221039 $

EXPIRED METARs :
  • 301020Z AUTO 33006KT 4SM -SN BR OVC006 M02/M03 A3021 RMK AO2 P0001 T10221033 $
  • 301006Z AUTO 33007KT 2SM -SN BR OVC006 M02/M03 A3021 RMK AO2 CIG 004V009 P0001 T10221033 $
  • 300952Z AUTO 34005KT 4SM -SN BR OVC007 M02/M03 A3020 RMK AO2 SNB23 CIG 005V009 SLP234 P0000 T10221033 $
  • 300852Z AUTO 32003KT 5SM BR OVC005 M02/M03 A3021 RMK AO2 SNB0754E20 SLP236 P0001 60001 T10171028 $
  • 300829Z AUTO 00000KT 4SM BR OVC005 M02/M03 A3021 RMK AO2 SNB0754E20 P0001 T10171028 $

TAF KTOL
Valid from the 30 at 08:00 until the 31 at 06:00 UTC


300750Z 3008/3106 VRB04KT 2SM -SN BR OVC004
FM301300 33004KT P6SM VCSH OVC008
FM301800 32009KT P6SM OVC015
FM310200 31009KT P6SM BKN025
KZOB FIR / North America



MET'MAP, your aeronautical weather chart ! - Copyright ORBIFLY December 2007 - Disclaimer

ORBIFLY MET'MAP TEAM :

Programming & Development : Alexandra Zaïnal
Original concept : Baudouin d'Aumeries
Technical & hardware support : Manuel Goepfert
Assistance : Marc-Olivier Méhu




SOURCES & CREDITS :

   NOAA       Earth
Advisory